sensor_id;sensor_type;location;lat;lon;timestamp;P1;durP1;ratioP1;P2;durP2;ratioP2
39994;SDS011;25686;51.908;10.418;2023-02-01T00:00:17;17.67;;;4.00;;
39994;SDS011;25686;51.908;10.418;2023-02-01T00:02:18;31.80;;;3.33;;
39994;SDS011;25686;51.908;10.418;2023-02-01T00:04:19;18.93;;;3.40;;
39994;SDS011;25686;51.908;10.418;2023-02-01T00:06:20;24.60;;;3.20;;
39994;SDS011;25686;51.908;10.418;2023-02-01T00:08:21;24.53;;;3.47;;
39994;SDS011;25686;51.908;10.418;2023-02-01T00:10:22;26.77;;;3.30;;
39994;SDS011;25686;51.908;10.418;2023-02-01T00:12:23;20.33;;;4.10;;
39994;SDS011;25686;51.908;10.418;2023-02-01T00:14:24;22.30;;;3.50;;
39994;SDS011;25686;51.908;10.418;2023-02-01T00:16:26;20.77;;;3.47;;
39994;SDS011;25686;51.908;10.418;2023-02-01T00:18:27;19.70;;;3.57;;
39994;SDS011;25686;51.908;10.418;2023-02-01T00:20:28;15.03;;;2.90;;
39994;SDS011;25686;51.908;10.418;2023-02-01T00:22:29;23.67;;;3.40;;
39994;SDS011;25686;51.908;10.418;2023-02-01T00:24:30;20.40;;;3.40;;
39994;SDS011;25686;51.908;10.418;2023-02-01T00:26:33;22.13;;;3.60;;
39994;SDS011;25686;51.908;10.418;2023-02-01T00:28:35;19.43;;;3.10;;
39994;SDS011;25686;51.908;10.418;2023-02-01T00:30:35;20.83;;;3.30;;
39994;SDS011;25686;51.908;10.418;2023-02-01T00:32:36;33.70;;;4.00;;
39994;SDS011;25686;51.908;10.418;2023-02-01T00:34:37;20.13;;;3.27;;
39994;SDS011;25686;51.908;10.418;2023-02-01T00:36:39;17.73;;;3.80;;
39994;SDS011;25686;51.908;10.418;2023-02-01T00:38:40;23.50;;;3.63;;
39994;SDS011;25686;51.908;10.418;2023-02-01T00:40:41;25.73;;;3.90;;
39994;SDS011;25686;51.908;10.418;2023-02-01T00:42:42;18.83;;;3.77;;
39994;SDS011;25686;51.908;10.418;2023-02-01T00:44:43;26.37;;;3.90;;
39994;SDS011;25686;51.908;10.418;2023-02-01T00:46:44;18.20;;;3.27;;
39994;SDS011;25686;51.908;10.418;2023-02-01T00:48:45;16.27;;;3.43;;
39994;SDS011;25686;51.908;10.418;2023-02-01T00:50:46;22.07;;;3.80;;
39994;SDS011;25686;51.908;10.418;2023-02-01T00:52:47;20.50;;;4.10;;
39994;SDS011;25686;51.908;10.418;2023-02-01T00:54:48;19.33;;;3.70;;
39994;SDS011;25686;51.908;10.418;2023-02-01T00:56:49;19.23;;;3.33;;
39994;SDS011;25686;51.908;10.418;2023-02-01T00:58:50;25.90;;;4.27;;
39994;SDS011;25686;51.908;10.418;2023-02-01T01:01:05;23.53;;;3.87;;
39994;SDS011;25686;51.908;10.418;2023-02-01T01:03:06;21.50;;;3.50;;
39994;SDS011;25686;51.908;10.418;2023-02-01T01:05:17;20.47;;;3.33;;
39994;SDS011;25686;51.908;10.418;2023-02-01T01:07:18;28.57;;;4.00;;
39994;SDS011;25686;51.908;10.418;2023-02-01T01:09:19;18.60;;;3.63;;
39994;SDS011;25686;51.908;10.418;2023-02-01T01:11:22;26.70;;;4.30;;
39994;SDS011;25686;51.908;10.418;2023-02-01T01:13:23;17.87;;;3.00;;
39994;SDS011;25686;51.908;10.418;2023-02-01T01:15:24;22.63;;;3.57;;
39994;SDS011;25686;51.908;10.418;2023-02-01T01:17:25;21.53;;;4.47;;
39994;SDS011;25686;51.908;10.418;2023-02-01T01:19:26;23.03;;;3.87;;
39994;SDS011;25686;51.908;10.418;2023-02-01T01:21:27;22.57;;;3.97;;
39994;SDS011;25686;51.908;10.418;2023-02-01T01:23:28;22.27;;;3.80;;
39994;SDS011;25686;51.908;10.418;2023-02-01T01:25:29;19.30;;;3.60;;
39994;SDS011;25686;51.908;10.418;2023-02-01T01:27:30;14.70;;;2.63;;
39994;SDS011;25686;51.908;10.418;2023-02-01T01:29:31;29.00;;;4.17;;
39994;SDS011;25686;51.908;10.418;2023-02-01T01:31:32;20.93;;;3.50;;
39994;SDS011;25686;51.908;10.418;2023-02-01T01:33:33;21.57;;;4.17;;
39994;SDS011;25686;51.908;10.418;2023-02-01T01:35:34;24.07;;;4.60;;
39994;SDS011;25686;51.908;10.418;2023-02-01T01:37:36;29.17;;;4.20;;
39994;SDS011;25686;51.908;10.418;2023-02-01T01:39:37;17.80;;;3.23;;
39994;SDS011;25686;51.908;10.418;2023-02-01T01:41:38;21.67;;;3.97;;
39994;SDS011;25686;51.908;10.418;2023-02-01T01:45:49;18.93;;;3.77;;
39994;SDS011;25686;51.908;10.418;2023-02-01T01:47:52;22.07;;;3.73;;
39994;SDS011;25686;51.908;10.418;2023-02-01T01:49:54;29.53;;;4.07;;
39994;SDS011;25686;51.908;10.418;2023-02-01T01:51:56;22.37;;;3.97;;
39994;SDS011;25686;51.908;10.418;2023-02-01T01:54:42;25.07;;;3.73;;
39994;SDS011;25686;51.908;10.418;2023-02-01T01:56:23;22.87;;;4.00;;
39994;SDS011;25686;51.908;10.418;2023-02-01T01:58:26;23.93;;;3.67;;
39994;SDS011;25686;51.908;10.418;2023-02-01T02:00:28;28.20;;;4.40;;
39994;SDS011;25686;51.908;10.418;2023-02-01T02:02:29;25.23;;;3.97;;
39994;SDS011;25686;51.908;10.418;2023-02-01T02:04:31;25.57;;;3.60;;
39994;SDS011;25686;51.908;10.418;2023-02-01T02:06:40;23.30;;;3.87;;
39994;SDS011;25686;51.908;10.418;2023-02-01T02:08:45;20.10;;;4.20;;
39994;SDS011;25686;51.908;10.418;2023-02-01T02:10:47;29.40;;;4.20;;
39994;SDS011;25686;51.908;10.418;2023-02-01T02:13:01;25.60;;;3.97;;
39994;SDS011;25686;51.908;10.418;2023-02-01T02:15:02;25.77;;;3.30;;
39994;SDS011;25686;51.908;10.418;2023-02-01T02:26:00;23.63;;;4.17;;
39994;SDS011;25686;51.908;10.418;2023-02-01T02:32:39;23.30;;;3.83;;
39994;SDS011;25686;51.908;10.418;2023-02-01T02:34:47;27.30;;;4.03;;
39994;SDS011;25686;51.908;10.418;2023-02-01T02:39:36;30.00;;;4.23;;
39994;SDS011;25686;51.908;10.418;2023-02-01T02:43:45;26.80;;;4.27;;
39994;SDS011;25686;51.908;10.418;2023-02-01T02:46:48;24.87;;;4.07;;
39994;SDS011;25686;51.908;10.418;2023-02-01T02:48:55;22.87;;;4.10;;
39994;SDS011;25686;51.908;10.418;2023-02-01T02:53:55;19.20;;;4.20;;
39994;SDS011;25686;51.908;10.418;2023-02-01T02:56:10;25.77;;;4.00;;
39994;SDS011;25686;51.908;10.418;2023-02-01T02:58:31;26.50;;;4.30;;
39994;SDS011;25686;51.908;10.418;2023-02-01T03:00:51;28.50;;;4.90;;
39994;SDS011;25686;51.908;10.418;2023-02-01T03:03:10;27.30;;;4.40;;
39994;SDS011;25686;51.908;10.418;2023-02-01T03:05:36;23.00;;;4.90;;
39994;SDS011;25686;51.908;10.418;2023-02-01T03:07:56;30.23;;;5.43;;
39994;SDS011;25686;51.908;10.418;2023-02-01T03:09:58;25.00;;;4.87;;
39994;SDS011;25686;51.908;10.418;2023-02-01T03:12:06;25.30;;;4.37;;
39994;SDS011;25686;51.908;10.418;2023-02-01T03:14:27;18.00;;;4.70;;
39994;SDS011;25686;51.908;10.418;2023-02-01T03:16:33;21.77;;;4.43;;
39994;SDS011;25686;51.908;10.418;2023-02-01T03:18:39;23.13;;;4.87;;
39994;SDS011;25686;51.908;10.418;2023-02-01T03:20:43;19.57;;;4.43;;
39994;SDS011;25686;51.908;10.418;2023-02-01T03:22:45;22.47;;;4.77;;
39994;SDS011;25686;51.908;10.418;2023-02-01T03:24:49;21.93;;;5.13;;
39994;SDS011;25686;51.908;10.418;2023-02-01T03:26:55;34.03;;;5.83;;
39994;SDS011;25686;51.908;10.418;2023-02-01T03:29:03;25.67;;;4.80;;
39994;SDS011;25686;51.908;10.418;2023-02-01T03:31:07;24.80;;;5.43;;
39994;SDS011;25686;51.908;10.418;2023-02-01T03:33:13;25.03;;;3.93;;
39994;SDS011;25686;51.908;10.418;2023-02-01T03:35:23;18.60;;;4.43;;
39994;SDS011;25686;51.908;10.418;2023-02-01T03:37:26;28.63;;;4.83;;
39994;SDS011;25686;51.908;10.418;2023-02-01T03:39:32;26.70;;;4.67;;
39994;SDS011;25686;51.908;10.418;2023-02-01T03:43:42;24.97;;;4.53;;
39994;SDS011;25686;51.908;10.418;2023-02-01T03:45:49;27.70;;;5.23;;
39994;SDS011;25686;51.908;10.418;2023-02-01T03:47:52;33.60;;;5.93;;
39994;SDS011;25686;51.908;10.418;2023-02-01T03:49:55;32.10;;;4.83;;
39994;SDS011;25686;51.908;10.418;2023-02-01T03:51:58;26.43;;;4.70;;
39994;SDS011;25686;51.908;10.418;2023-02-01T03:54:03;25.27;;;5.00;;
39994;SDS011;25686;51.908;10.418;2023-02-01T03:56:06;26.67;;;4.60;;
39994;SDS011;25686;51.908;10.418;2023-02-01T03:58:14;22.13;;;5.03;;
39994;SDS011;25686;51.908;10.418;2023-02-01T04:00:20;19.80;;;4.50;;
39994;SDS011;25686;51.908;10.418;2023-02-01T04:02:21;23.40;;;5.13;;
39994;SDS011;25686;51.908;10.418;2023-02-01T04:04:22;24.33;;;5.03;;
39994;SDS011;25686;51.908;10.418;2023-02-01T04:06:24;22.10;;;5.17;;
39994;SDS011;25686;51.908;10.418;2023-02-01T04:08:25;27.77;;;4.93;;
39994;SDS011;25686;51.908;10.418;2023-02-01T04:10:26;21.77;;;5.40;;
39994;SDS011;25686;51.908;10.418;2023-02-01T04:12:27;29.17;;;5.50;;
39994;SDS011;25686;51.908;10.418;2023-02-01T04:14:28;26.27;;;5.07;;
39994;SDS011;25686;51.908;10.418;2023-02-01T04:16:30;19.90;;;4.67;;
39994;SDS011;25686;51.908;10.418;2023-02-01T04:18:31;28.30;;;5.60;;
39994;SDS011;25686;51.908;10.418;2023-02-01T04:20:32;20.90;;;5.17;;
39994;SDS011;25686;51.908;10.418;2023-02-01T04:22:33;22.33;;;5.10;;
39994;SDS011;25686;51.908;10.418;2023-02-01T04:24:34;28.93;;;5.63;;
39994;SDS011;25686;51.908;10.418;2023-02-01T04:26:36;29.20;;;6.17;;
39994;SDS011;25686;51.908;10.418;2023-02-01T04:28:37;23.13;;;6.17;;
39994;SDS011;25686;51.908;10.418;2023-02-01T04:30:38;29.90;;;6.30;;
39994;SDS011;25686;51.908;10.418;2023-02-01T04:32:39;20.07;;;5.57;;
39994;SDS011;25686;51.908;10.418;2023-02-01T04:34:40;25.10;;;6.60;;
39994;SDS011;25686;51.908;10.418;2023-02-01T04:36:41;23.87;;;6.47;;
39994;SDS011;25686;51.908;10.418;2023-02-01T04:38:42;20.10;;;5.03;;
39994;SDS011;25686;51.908;10.418;2023-02-01T04:40:43;21.73;;;6.70;;
39994;SDS011;25686;51.908;10.418;2023-02-01T04:42:44;24.30;;;6.70;;
39994;SDS011;25686;51.908;10.418;2023-02-01T04:44:45;27.33;;;7.20;;
39994;SDS011;25686;51.908;10.418;2023-02-01T04:46:46;23.40;;;6.47;;
39994;SDS011;25686;51.908;10.418;2023-02-01T04:48:47;29.03;;;7.30;;
39994;SDS011;25686;51.908;10.418;2023-02-01T04:50:48;22.23;;;7.33;;
39994;SDS011;25686;51.908;10.418;2023-02-01T04:52:49;34.20;;;7.60;;
39994;SDS011;25686;51.908;10.418;2023-02-01T04:54:50;28.80;;;7.40;;
39994;SDS011;25686;51.908;10.418;2023-02-01T04:56:54;25.07;;;7.03;;
39994;SDS011;25686;51.908;10.418;2023-02-01T04:58:55;22.90;;;7.50;;
39994;SDS011;25686;51.908;10.418;2023-02-01T05:00:56;26.07;;;6.80;;
39994;SDS011;25686;51.908;10.418;2023-02-01T05:02:57;22.13;;;6.80;;
39994;SDS011;25686;51.908;10.418;2023-02-01T05:04:58;25.77;;;7.53;;
39994;SDS011;25686;51.908;10.418;2023-02-01T05:06:59;26.20;;;7.40;;
39994;SDS011;25686;51.908;10.418;2023-02-01T05:09:00;24.63;;;6.73;;
39994;SDS011;25686;51.908;10.418;2023-02-01T05:11:00;24.83;;;7.23;;
39994;SDS011;25686;51.908;10.418;2023-02-01T05:13:03;25.50;;;7.27;;
39994;SDS011;25686;51.908;10.418;2023-02-01T05:15:23;27.10;;;7.13;;
39994;SDS011;25686;51.908;10.418;2023-02-01T05:17:24;26.00;;;6.83;;
39994;SDS011;25686;51.908;10.418;2023-02-01T05:19:25;25.17;;;6.37;;
39994;SDS011;25686;51.908;10.418;2023-02-01T05:21:26;33.60;;;7.07;;
39994;SDS011;25686;51.908;10.418;2023-02-01T05:23:27;28.30;;;6.80;;
39994;SDS011;25686;51.908;10.418;2023-02-01T05:25:28;29.17;;;6.97;;
39994;SDS011;25686;51.908;10.418;2023-02-01T05:27:30;16.27;;;5.57;;
39994;SDS011;25686;51.908;10.418;2023-02-01T05:29:31;32.97;;;7.23;;
39994;SDS011;25686;51.908;10.418;2023-02-01T05:31:32;21.20;;;5.83;;
39994;SDS011;25686;51.908;10.418;2023-02-01T05:33:33;26.37;;;6.80;;
39994;SDS011;25686;51.908;10.418;2023-02-01T05:35:34;25.90;;;6.73;;
39994;SDS011;25686;51.908;10.418;2023-02-01T05:37:35;24.43;;;6.60;;
39994;SDS011;25686;51.908;10.418;2023-02-01T05:39:36;21.97;;;6.13;;
39994;SDS011;25686;51.908;10.418;2023-02-01T05:41:37;21.20;;;5.73;;
39994;SDS011;25686;51.908;10.418;2023-02-01T05:43:38;22.40;;;6.10;;
39994;SDS011;25686;51.908;10.418;2023-02-01T05:45:39;28.40;;;6.53;;
39994;SDS011;25686;51.908;10.418;2023-02-01T05:47:40;22.93;;;6.00;;
39994;SDS011;25686;51.908;10.418;2023-02-01T05:49:41;19.63;;;5.40;;
39994;SDS011;25686;51.908;10.418;2023-02-01T05:51:42;24.97;;;6.20;;
39994;SDS011;25686;51.908;10.418;2023-02-01T05:53:43;21.53;;;6.43;;
39994;SDS011;25686;51.908;10.418;2023-02-01T05:55:44;20.57;;;4.80;;
39994;SDS011;25686;51.908;10.418;2023-02-01T05:57:45;18.57;;;5.03;;
39994;SDS011;25686;51.908;10.418;2023-02-01T05:59:46;24.67;;;5.37;;
39994;SDS011;25686;51.908;10.418;2023-02-01T06:01:48;23.60;;;6.03;;
39994;SDS011;25686;51.908;10.418;2023-02-01T06:03:49;18.83;;;5.03;;
39994;SDS011;25686;51.908;10.418;2023-02-01T06:05:50;20.33;;;5.57;;
39994;SDS011;25686;51.908;10.418;2023-02-01T06:07:51;20.90;;;5.40;;
39994;SDS011;25686;51.908;10.418;2023-02-01T06:09:52;21.87;;;5.70;;
39994;SDS011;25686;51.908;10.418;2023-02-01T06:11:53;22.77;;;5.40;;
39994;SDS011;25686;51.908;10.418;2023-02-01T06:13:54;25.27;;;5.90;;
39994;SDS011;25686;51.908;10.418;2023-02-01T06:15:56;16.07;;;4.97;;
39994;SDS011;25686;51.908;10.418;2023-02-01T06:17:57;13.30;;;5.03;;
39994;SDS011;25686;51.908;10.418;2023-02-01T06:19:58;16.40;;;5.67;;
39994;SDS011;25686;51.908;10.418;2023-02-01T06:21:59;19.07;;;5.40;;
39994;SDS011;25686;51.908;10.418;2023-02-01T06:24:00;12.97;;;4.93;;
39994;SDS011;25686;51.908;10.418;2023-02-01T06:26:04;17.30;;;4.93;;
39994;SDS011;25686;51.908;10.418;2023-02-01T06:28:06;16.37;;;5.30;;
39994;SDS011;25686;51.908;10.418;2023-02-01T06:30:08;18.30;;;5.20;;
39994;SDS011;25686;51.908;10.418;2023-02-01T06:32:09;25.17;;;5.67;;
39994;SDS011;25686;51.908;10.418;2023-02-01T06:34:11;16.23;;;5.13;;
39994;SDS011;25686;51.908;10.418;2023-02-01T06:36:12;15.83;;;5.07;;
39994;SDS011;25686;51.908;10.418;2023-02-01T06:38:13;15.30;;;5.10;;
39994;SDS011;25686;51.908;10.418;2023-02-01T06:40:14;13.77;;;5.00;;
39994;SDS011;25686;51.908;10.418;2023-02-01T06:42:15;14.70;;;4.43;;
39994;SDS011;25686;51.908;10.418;2023-02-01T06:44:16;16.13;;;4.70;;
39994;SDS011;25686;51.908;10.418;2023-02-01T06:46:17;15.57;;;4.67;;
39994;SDS011;25686;51.908;10.418;2023-02-01T06:48:18;19.10;;;4.80;;
39994;SDS011;25686;51.908;10.418;2023-02-01T06:50:19;13.90;;;4.30;;
39994;SDS011;25686;51.908;10.418;2023-02-01T06:52:21;9.73;;;3.87;;
39994;SDS011;25686;51.908;10.418;2023-02-01T06:54:22;9.30;;;3.93;;
39994;SDS011;25686;51.908;10.418;2023-02-01T06:56:23;14.70;;;3.80;;
39994;SDS011;25686;51.908;10.418;2023-02-01T06:58:24;14.77;;;3.90;;
39994;SDS011;25686;51.908;10.418;2023-02-01T07:00:25;12.83;;;3.50;;
39994;SDS011;25686;51.908;10.418;2023-02-01T07:02:26;10.70;;;4.00;;
39994;SDS011;25686;51.908;10.418;2023-02-01T07:04:27;10.97;;;3.83;;
39994;SDS011;25686;51.908;10.418;2023-02-01T07:06:28;7.20;;;3.30;;
39994;SDS011;25686;51.908;10.418;2023-02-01T07:08:29;8.03;;;3.17;;
39994;SDS011;25686;51.908;10.418;2023-02-01T07:10:30;6.13;;;2.93;;
39994;SDS011;25686;51.908;10.418;2023-02-01T07:12:31;10.97;;;3.40;;
39994;SDS011;25686;51.908;10.418;2023-02-01T07:14:32;10.40;;;3.57;;
39994;SDS011;25686;51.908;10.418;2023-02-01T07:16:33;7.73;;;3.10;;
39994;SDS011;25686;51.908;10.418;2023-02-01T07:18:34;8.13;;;3.47;;
39994;SDS011;25686;51.908;10.418;2023-02-01T07:20:35;8.80;;;2.90;;
39994;SDS011;25686;51.908;10.418;2023-02-01T07:22:36;6.03;;;2.27;;
39994;SDS011;25686;51.908;10.418;2023-02-01T07:24:37;8.60;;;3.00;;
39994;SDS011;25686;51.908;10.418;2023-02-01T07:26:38;6.50;;;2.70;;
39994;SDS011;25686;51.908;10.418;2023-02-01T07:28:39;8.57;;;3.60;;
39994;SDS011;25686;51.908;10.418;2023-02-01T07:30:40;11.47;;;3.77;;
39994;SDS011;25686;51.908;10.418;2023-02-01T07:32:41;12.63;;;3.70;;
39994;SDS011;25686;51.908;10.418;2023-02-01T07:34:42;11.53;;;3.90;;
39994;SDS011;25686;51.908;10.418;2023-02-01T07:36:43;11.70;;;4.00;;
39994;SDS011;25686;51.908;10.418;2023-02-01T07:38:45;11.83;;;4.30;;
39994;SDS011;25686;51.908;10.418;2023-02-01T07:40:49;11.47;;;3.97;;
39994;SDS011;25686;51.908;10.418;2023-02-01T07:42:50;14.33;;;4.40;;
39994;SDS011;25686;51.908;10.418;2023-02-01T07:44:51;8.20;;;3.60;;
39994;SDS011;25686;51.908;10.418;2023-02-01T07:46:52;12.97;;;5.07;;
39994;SDS011;25686;51.908;10.418;2023-02-01T07:48:53;16.27;;;4.37;;
39994;SDS011;25686;51.908;10.418;2023-02-01T07:51:00;16.23;;;4.93;;
39994;SDS011;25686;51.908;10.418;2023-02-01T07:53:02;16.03;;;4.83;;
39994;SDS011;25686;51.908;10.418;2023-02-01T07:55:03;19.17;;;4.57;;
39994;SDS011;25686;51.908;10.418;2023-02-01T07:57:04;18.60;;;5.07;;
39994;SDS011;25686;51.908;10.418;2023-02-01T07:59:05;18.80;;;4.50;;
39994;SDS011;25686;51.908;10.418;2023-02-01T08:01:13;11.43;;;4.33;;
39994;SDS011;25686;51.908;10.418;2023-02-01T08:03:20;9.07;;;4.00;;
39994;SDS011;25686;51.908;10.418;2023-02-01T08:05:21;15.73;;;4.70;;
39994;SDS011;25686;51.908;10.418;2023-02-01T08:07:22;9.77;;;3.70;;
39994;SDS011;25686;51.908;10.418;2023-02-01T08:09:23;12.60;;;4.00;;
39994;SDS011;25686;51.908;10.418;2023-02-01T08:11:24;11.57;;;3.33;;
39994;SDS011;25686;51.908;10.418;2023-02-01T08:13:25;12.27;;;3.43;;
39994;SDS011;25686;51.908;10.418;2023-02-01T08:15:27;9.70;;;3.30;;
39994;SDS011;25686;51.908;10.418;2023-02-01T08:17:28;7.63;;;2.90;;
39994;SDS011;25686;51.908;10.418;2023-02-01T08:19:30;13.43;;;3.40;;
39994;SDS011;25686;51.908;10.418;2023-02-01T08:21:31;12.50;;;3.33;;
39994;SDS011;25686;51.908;10.418;2023-02-01T08:23:36;13.03;;;3.70;;
39994;SDS011;25686;51.908;10.418;2023-02-01T08:25:38;17.63;;;3.97;;
39994;SDS011;25686;51.908;10.418;2023-02-01T08:27:39;18.33;;;4.10;;
39994;SDS011;25686;51.908;10.418;2023-02-01T08:29:40;26.13;;;4.20;;
39994;SDS011;25686;51.908;10.418;2023-02-01T08:31:41;18.40;;;4.57;;
39994;SDS011;25686;51.908;10.418;2023-02-01T08:33:43;19.20;;;4.07;;
39994;SDS011;25686;51.908;10.418;2023-02-01T08:35:45;17.20;;;4.07;;
39994;SDS011;25686;51.908;10.418;2023-02-01T08:37:46;17.07;;;4.20;;
39994;SDS011;25686;51.908;10.418;2023-02-01T08:39:47;19.20;;;4.47;;
39994;SDS011;25686;51.908;10.418;2023-02-01T08:41:50;23.90;;;4.47;;
39994;SDS011;25686;51.908;10.418;2023-02-01T08:44:09;20.37;;;4.03;;
39994;SDS011;25686;51.908;10.418;2023-02-01T08:46:10;18.60;;;4.13;;
39994;SDS011;25686;51.908;10.418;2023-02-01T08:48:12;21.20;;;4.00;;
39994;SDS011;25686;51.908;10.418;2023-02-01T08:50:13;12.73;;;3.43;;
39994;SDS011;25686;51.908;10.418;2023-02-01T08:52:14;19.33;;;3.90;;
39994;SDS011;25686;51.908;10.418;2023-02-01T08:54:15;21.03;;;4.20;;
39994;SDS011;25686;51.908;10.418;2023-02-01T08:56:16;20.30;;;3.90;;
39994;SDS011;25686;51.908;10.418;2023-02-01T08:58:18;16.30;;;3.60;;
39994;SDS011;25686;51.908;10.418;2023-02-01T09:00:19;19.03;;;3.80;;
39994;SDS011;25686;51.908;10.418;2023-02-01T09:02:20;18.13;;;3.67;;
39994;SDS011;25686;51.908;10.418;2023-02-01T09:04:21;21.10;;;4.37;;
39994;SDS011;25686;51.908;10.418;2023-02-01T09:06:22;15.67;;;3.77;;
39994;SDS011;25686;51.908;10.418;2023-02-01T09:08:23;13.53;;;3.43;;
39994;SDS011;25686;51.908;10.418;2023-02-01T09:10:24;13.27;;;3.17;;
39994;SDS011;25686;51.908;10.418;2023-02-01T09:12:27;17.60;;;3.93;;
39994;SDS011;25686;51.908;10.418;2023-02-01T09:14:28;16.93;;;3.53;;
39994;SDS011;25686;51.908;10.418;2023-02-01T09:16:29;18.90;;;3.37;;
39994;SDS011;25686;51.908;10.418;2023-02-01T09:18:30;19.43;;;3.63;;
39994;SDS011;25686;51.908;10.418;2023-02-01T09:20:31;14.53;;;3.33;;
39994;SDS011;25686;51.908;10.418;2023-02-01T09:22:32;24.87;;;4.13;;
39994;SDS011;25686;51.908;10.418;2023-02-01T09:24:33;19.93;;;3.20;;
39994;SDS011;25686;51.908;10.418;2023-02-01T09:26:34;20.37;;;3.93;;
39994;SDS011;25686;51.908;10.418;2023-02-01T09:28:35;14.07;;;3.43;;
39994;SDS011;25686;51.908;10.418;2023-02-01T09:30:36;16.17;;;3.30;;
39994;SDS011;25686;51.908;10.418;2023-02-01T09:32:38;23.47;;;3.73;;
39994;SDS011;25686;51.908;10.418;2023-02-01T09:34:38;16.67;;;3.20;;
39994;SDS011;25686;51.908;10.418;2023-02-01T09:36:39;13.60;;;3.40;;
39994;SDS011;25686;51.908;10.418;2023-02-01T09:38:41;15.63;;;2.97;;
39994;SDS011;25686;51.908;10.418;2023-02-01T09:40:42;13.85;;;2.70;;
39994;SDS011;25686;51.908;10.418;2023-02-01T09:42:52;19.52;;;3.28;;
39994;SDS011;25686;51.908;10.418;2023-02-01T09:47:04;13.00;;;2.40;;
39994;SDS011;25686;51.908;10.418;2023-02-01T09:49:18;17.27;;;2.70;;
39994;SDS011;25686;51.908;10.418;2023-02-01T09:51:34;14.68;;;2.83;;
39994;SDS011;25686;51.908;10.418;2023-02-01T09:53:40;11.43;;;2.40;;
39994;SDS011;25686;51.908;10.418;2023-02-01T09:55:43;15.40;;;2.72;;
39994;SDS011;25686;51.908;10.418;2023-02-01T09:57:59;11.40;;;2.65;;
39994;SDS011;25686;51.908;10.418;2023-02-01T10:00:05;14.43;;;2.95;;
39994;SDS011;25686;51.908;10.418;2023-02-01T10:02:12;16.02;;;3.10;;
39994;SDS011;25686;51.908;10.418;2023-02-01T10:04:14;19.13;;;2.83;;
39994;SDS011;25686;51.908;10.418;2023-02-01T10:10:47;19.45;;;3.38;;
39994;SDS011;25686;51.908;10.418;2023-02-01T10:15:13;19.02;;;3.55;;
39994;SDS011;25686;51.908;10.418;2023-02-01T10:19:24;14.67;;;2.93;;
39994;SDS011;25686;51.908;10.418;2023-02-01T10:21:31;16.83;;;3.08;;
39994;SDS011;25686;51.908;10.418;2023-02-01T10:23:46;23.60;;;3.17;;
39994;SDS011;25686;51.908;10.418;2023-02-01T10:25:59;14.90;;;3.33;;
39994;SDS011;25686;51.908;10.418;2023-02-01T10:28:03;17.10;;;3.22;;
39994;SDS011;25686;51.908;10.418;2023-02-01T10:30:12;15.05;;;3.25;;
39994;SDS011;25686;51.908;10.418;2023-02-01T10:32:16;16.45;;;3.30;;
39994;SDS011;25686;51.908;10.418;2023-02-01T10:34:20;12.45;;;3.22;;
39994;SDS011;25686;51.908;10.418;2023-02-01T10:36:27;14.60;;;3.17;;
39994;SDS011;25686;51.908;10.418;2023-02-01T10:38:30;16.85;;;2.80;;
39994;SDS011;25686;51.908;10.418;2023-02-01T10:40:32;20.98;;;3.42;;
39994;SDS011;25686;51.908;10.418;2023-02-01T10:42:33;14.00;;;3.17;;
39994;SDS011;25686;51.908;10.418;2023-02-01T10:44:34;14.13;;;2.85;;
39994;SDS011;25686;51.908;10.418;2023-02-01T10:46:38;13.45;;;2.63;;
39994;SDS011;25686;51.908;10.418;2023-02-01T10:48:39;20.33;;;3.65;;
39994;SDS011;25686;51.908;10.418;2023-02-01T10:53:02;20.40;;;3.08;;
39994;SDS011;25686;51.908;10.418;2023-02-01T10:57:26;14.00;;;2.63;;
39994;SDS011;25686;51.908;10.418;2023-02-01T10:59:30;13.50;;;2.95;;
39994;SDS011;25686;51.908;10.418;2023-02-01T11:01:34;17.90;;;3.67;;
39994;SDS011;25686;51.908;10.418;2023-02-01T11:03:39;17.80;;;2.92;;
39994;SDS011;25686;51.908;10.418;2023-02-01T11:05:45;13.55;;;2.72;;
39994;SDS011;25686;51.908;10.418;2023-02-01T11:07:50;15.60;;;3.13;;
39994;SDS011;25686;51.908;10.418;2023-02-01T11:09:55;18.98;;;2.78;;
39994;SDS011;25686;51.908;10.418;2023-02-01T11:11:58;18.50;;;3.80;;
39994;SDS011;25686;51.908;10.418;2023-02-01T11:14:00;11.60;;;3.13;;
39994;SDS011;25686;51.908;10.418;2023-02-01T11:16:02;20.38;;;3.10;;
39994;SDS011;25686;51.908;10.418;2023-02-01T11:18:12;10.85;;;2.20;;
39994;SDS011;25686;51.908;10.418;2023-02-01T11:20:16;14.32;;;2.88;;
39994;SDS011;25686;51.908;10.418;2023-02-01T11:22:17;13.45;;;3.08;;
39994;SDS011;25686;51.908;10.418;2023-02-01T11:24:25;14.75;;;2.78;;
39994;SDS011;25686;51.908;10.418;2023-02-01T11:26:27;16.55;;;2.72;;
39994;SDS011;25686;51.908;10.418;2023-02-01T11:28:32;20.27;;;3.03;;
39994;SDS011;25686;51.908;10.418;2023-02-01T11:30:37;17.88;;;3.13;;
39994;SDS011;25686;51.908;10.418;2023-02-01T11:32:40;20.15;;;3.47;;
39994;SDS011;25686;51.908;10.418;2023-02-01T11:34:43;12.52;;;2.80;;
39994;SDS011;25686;51.908;10.418;2023-02-01T11:36:48;17.90;;;3.05;;
39994;SDS011;25686;51.908;10.418;2023-02-01T11:41:13;13.93;;;2.38;;
39994;SDS011;25686;51.908;10.418;2023-02-01T11:43:25;21.85;;;3.22;;
39994;SDS011;25686;51.908;10.418;2023-02-01T11:45:28;23.43;;;3.10;;
39994;SDS011;25686;51.908;10.418;2023-02-01T11:47:30;17.65;;;2.85;;
39994;SDS011;25686;51.908;10.418;2023-02-01T11:49:32;15.35;;;3.00;;
39994;SDS011;25686;51.908;10.418;2023-02-01T11:51:37;15.23;;;2.72;;
39994;SDS011;25686;51.908;10.418;2023-02-01T12:07:10;10.88;;;3.17;;
39994;SDS011;25686;51.908;10.418;2023-02-01T12:24:42;14.35;;;3.65;;
39994;SDS011;25686;51.908;10.418;2023-02-01T12:33:27;13.53;;;4.27;;
39994;SDS011;25686;51.908;10.418;2023-02-01T12:35:49;17.67;;;3.93;;
39994;SDS011;25686;51.908;10.418;2023-02-01T12:40:22;15.83;;;4.27;;
39994;SDS011;25686;51.908;10.418;2023-02-01T12:42:25;17.77;;;4.73;;
39994;SDS011;25686;51.908;10.418;2023-02-01T12:46:44;19.07;;;4.50;;
39994;SDS011;25686;51.908;10.418;2023-02-01T12:50:55;18.80;;;4.57;;
39994;SDS011;25686;51.908;10.418;2023-02-01T12:57:32;14.00;;;4.40;;
39994;SDS011;25686;51.908;10.418;2023-02-01T12:59:36;18.77;;;4.50;;
39994;SDS011;25686;51.908;10.418;2023-02-01T13:01:39;14.63;;;4.63;;
39994;SDS011;25686;51.908;10.418;2023-02-01T13:05:46;21.52;;;4.70;;
39994;SDS011;25686;51.908;10.418;2023-02-01T13:10:00;16.63;;;5.25;;
39994;SDS011;25686;51.908;10.418;2023-02-01T13:12:05;12.98;;;5.03;;
39994;SDS011;25686;51.908;10.418;2023-02-01T13:14:14;17.30;;;6.05;;
39994;SDS011;25686;51.908;10.418;2023-02-01T13:16:21;19.50;;;5.68;;
39994;SDS011;25686;51.908;10.418;2023-02-01T13:18:30;23.25;;;6.40;;
39994;SDS011;25686;51.908;10.418;2023-02-01T13:23:07;19.60;;;5.82;;
39994;SDS011;25686;51.908;10.418;2023-02-01T13:25:13;17.33;;;5.80;;
39994;SDS011;25686;51.908;10.418;2023-02-01T13:27:16;13.00;;;5.03;;
39994;SDS011;25686;51.908;10.418;2023-02-01T13:29:17;17.67;;;6.50;;
39994;SDS011;25686;51.908;10.418;2023-02-01T13:36:02;18.83;;;6.40;;
39994;SDS011;25686;51.908;10.418;2023-02-01T13:38:20;21.67;;;6.80;;
39994;SDS011;25686;51.908;10.418;2023-02-01T13:40:40;20.60;;;6.73;;
39994;SDS011;25686;51.908;10.418;2023-02-01T13:44:48;16.27;;;5.50;;